sensor_id;sensor_type;location;lat;lon;timestamp;pressure;altitude;pressure_sealevel;temperature;humidity
34065;BME280;20339;49.754;20.158;2022-11-11T00:01:44;98026.09;;;5.63;100.00
34065;BME280;20339;49.754;20.158;2022-11-11T00:04:18;98027.77;;;5.62;100.00
34065;BME280;20339;49.754;20.158;2022-11-11T00:06:49;98032.67;;;5.64;100.00
34065;BME280;20339;49.754;20.158;2022-11-11T00:09:22;98036.66;;;5.73;100.00
34065;BME280;20339;49.754;20.158;2022-11-11T00:11:53;98033.80;;;5.80;100.00
34065;BME280;20339;49.754;20.158;2022-11-11T00:14:26;98039.00;;;5.82;100.00
34065;BME280;20339;49.754;20.158;2022-11-11T00:16:57;98045.41;;;5.86;100.00
34065;BME280;20339;49.754;20.158;2022-11-11T00:19:46;98047.03;;;5.85;100.00
34065;BME280;20339;49.754;20.158;2022-11-11T00:22:35;98050.52;;;5.85;100.00
34065;BME280;20339;49.754;20.158;2022-11-11T00:25:24;98056.06;;;5.85;100.00
34065;BME280;20339;49.754;20.158;2022-11-11T00:27:55;98060.10;;;5.86;100.00
34065;BME280;20339;49.754;20.158;2022-11-11T00:30:26;98061.76;;;5.86;100.00
34065;BME280;20339;49.754;20.158;2022-11-11T00:32:58;98061.45;;;5.84;100.00
34065;BME280;20339;49.754;20.158;2022-11-11T00:35:29;98060.88;;;5.80;100.00
34065;BME280;20339;49.754;20.158;2022-11-11T00:38:17;98064.30;;;5.75;100.00
34065;BME280;20339;49.754;20.158;2022-11-11T00:41:02;98063.61;;;5.75;100.00
34065;BME280;20339;49.754;20.158;2022-11-11T00:43:33;98068.10;;;5.74;100.00
34065;BME280;20339;49.754;20.158;2022-11-11T00:46:05;98065.60;;;5.73;100.00
34065;BME280;20339;49.754;20.158;2022-11-11T00:48:54;98061.74;;;5.77;100.00
34065;BME280;20339;49.754;20.158;2022-11-11T00:51:42;98063.70;;;5.82;100.00
34065;BME280;20339;49.754;20.158;2022-11-11T00:54:13;98067.56;;;5.84;100.00
34065;BME280;20339;49.754;20.158;2022-11-11T00:56:44;98060.55;;;5.85;100.00
34065;BME280;20339;49.754;20.158;2022-11-11T00:59:16;98062.09;;;5.85;100.00
34065;BME280;20339;49.754;20.158;2022-11-11T01:01:47;98065.70;;;5.83;100.00
34065;BME280;20339;49.754;20.158;2022-11-11T01:04:18;98059.64;;;5.83;100.00
34065;BME280;20339;49.754;20.158;2022-11-11T01:06:51;98053.40;;;5.84;100.00
34065;BME280;20339;49.754;20.158;2022-11-11T01:09:22;98056.34;;;5.85;100.00
34065;BME280;20339;49.754;20.158;2022-11-11T01:11:54;98055.81;;;5.85;100.00
34065;BME280;20339;49.754;20.158;2022-11-11T01:14:25;98052.45;;;5.87;100.00
34065;BME280;20339;49.754;20.158;2022-11-11T01:16:58;98052.33;;;5.86;100.00
34065;BME280;20339;49.754;20.158;2022-11-11T01:19:33;98051.49;;;5.83;100.00
34065;BME280;20339;49.754;20.158;2022-11-11T01:22:04;98047.05;;;5.83;100.00
34065;BME280;20339;49.754;20.158;2022-11-11T01:24:37;98045.23;;;5.79;100.00
34065;BME280;20339;49.754;20.158;2022-11-11T01:27:08;98049.30;;;5.79;100.00
34065;BME280;20339;49.754;20.158;2022-11-11T01:29:41;98050.73;;;5.79;100.00
34065;BME280;20339;49.754;20.158;2022-11-11T01:32:12;98051.27;;;5.81;100.00
34065;BME280;20339;49.754;20.158;2022-11-11T01:34:44;98045.05;;;5.91;100.00
34065;BME280;20339;49.754;20.158;2022-11-11T01:37:15;98043.56;;;5.99;100.00
34065;BME280;20339;49.754;20.158;2022-11-11T01:39:46;98042.20;;;6.03;100.00
34065;BME280;20339;49.754;20.158;2022-11-11T01:42:17;98043.52;;;6.08;100.00
34065;BME280;20339;49.754;20.158;2022-11-11T01:44:52;98044.19;;;6.13;100.00
34065;BME280;20339;49.754;20.158;2022-11-11T01:47:23;98044.92;;;6.18;100.00
34065;BME280;20339;49.754;20.158;2022-11-11T01:50:16;98042.73;;;6.21;100.00
34065;BME280;20339;49.754;20.158;2022-11-11T01:52:47;98045.48;;;6.25;100.00
34065;BME280;20339;49.754;20.158;2022-11-11T01:55:21;98045.59;;;6.27;100.00
34065;BME280;20339;49.754;20.158;2022-11-11T01:57:56;98046.19;;;6.28;100.00
34065;BME280;20339;49.754;20.158;2022-11-11T02:00:27;98047.50;;;6.30;100.00
34065;BME280;20339;49.754;20.158;2022-11-11T02:03:03;98053.25;;;6.30;100.00
34065;BME280;20339;49.754;20.158;2022-11-11T02:05:35;98056.39;;;6.29;100.00
34065;BME280;20339;49.754;20.158;2022-11-11T02:08:16;98053.71;;;6.34;100.00
34065;BME280;20339;49.754;20.158;2022-11-11T02:11:03;98054.95;;;6.42;100.00
34065;BME280;20339;49.754;20.158;2022-11-11T02:13:38;98056.23;;;6.49;100.00
34065;BME280;20339;49.754;20.158;2022-11-11T02:16:28;98054.19;;;6.54;100.00
34065;BME280;20339;49.754;20.158;2022-11-11T02:18:59;98056.69;;;6.59;100.00
34065;BME280;20339;49.754;20.158;2022-11-11T02:21:38;98058.63;;;6.62;100.00
34065;BME280;20339;49.754;20.158;2022-11-11T02:24:13;98054.36;;;6.67;99.95
34065;BME280;20339;49.754;20.158;2022-11-11T02:26:47;98055.71;;;6.70;99.83
34065;BME280;20339;49.754;20.158;2022-11-11T02:29:20;98061.63;;;6.73;99.66
34065;BME280;20339;49.754;20.158;2022-11-11T02:31:52;98062.91;;;6.76;99.49
34065;BME280;20339;49.754;20.158;2022-11-11T02:34:29;98066.92;;;6.78;99.45
34065;BME280;20339;49.754;20.158;2022-11-11T02:37:02;98067.52;;;6.78;99.18
34065;BME280;20339;49.754;20.158;2022-11-11T02:39:36;98067.53;;;6.80;99.05
34065;BME280;20339;49.754;20.158;2022-11-11T02:42:12;98070.40;;;6.81;99.15
34065;BME280;20339;49.754;20.158;2022-11-11T02:44:44;98074.06;;;6.84;98.94
34065;BME280;20339;49.754;20.158;2022-11-11T02:47:16;98072.45;;;6.85;98.91
34065;BME280;20339;49.754;20.158;2022-11-11T02:49:47;98075.00;;;6.86;98.72
34065;BME280;20339;49.754;20.158;2022-11-11T02:52:20;98080.00;;;6.85;98.81
34065;BME280;20339;49.754;20.158;2022-11-11T02:54:51;98083.62;;;6.85;98.48
34065;BME280;20339;49.754;20.158;2022-11-11T02:57:23;98090.19;;;6.84;98.45
34065;BME280;20339;49.754;20.158;2022-11-11T02:59:54;98096.98;;;6.82;98.40
34065;BME280;20339;49.754;20.158;2022-11-11T03:02:28;98098.73;;;6.82;98.53
34065;BME280;20339;49.754;20.158;2022-11-11T03:04:59;98098.44;;;6.83;98.48
34065;BME280;20339;49.754;20.158;2022-11-11T03:07:30;98096.65;;;6.83;98.59
34065;BME280;20339;49.754;20.158;2022-11-11T03:10:01;98099.08;;;6.81;98.21
34065;BME280;20339;49.754;20.158;2022-11-11T03:12:33;98101.37;;;6.79;98.36
34065;BME280;20339;49.754;20.158;2022-11-11T03:15:05;98101.20;;;6.76;98.37
34065;BME280;20339;49.754;20.158;2022-11-11T03:17:36;98095.31;;;6.77;98.47
34065;BME280;20339;49.754;20.158;2022-11-11T03:20:12;98101.63;;;6.80;98.36
34065;BME280;20339;49.754;20.158;2022-11-11T03:23:00;98101.58;;;6.88;98.22
34065;BME280;20339;49.754;20.158;2022-11-11T03:25:32;98096.92;;;6.88;98.18
34065;BME280;20339;49.754;20.158;2022-11-11T03:28:11;98092.29;;;6.86;98.16
34065;BME280;20339;49.754;20.158;2022-11-11T03:30:44;98094.54;;;6.83;97.92
34065;BME280;20339;49.754;20.158;2022-11-11T03:33:16;98086.88;;;6.79;97.96
34065;BME280;20339;49.754;20.158;2022-11-11T03:35:48;98086.23;;;6.76;98.05
34065;BME280;20339;49.754;20.158;2022-11-11T03:38:19;98087.92;;;6.77;97.94
34065;BME280;20339;49.754;20.158;2022-11-11T03:40:54;98081.05;;;6.78;98.04
34065;BME280;20339;49.754;20.158;2022-11-11T03:43:27;98077.83;;;6.78;98.13
34065;BME280;20339;49.754;20.158;2022-11-11T03:45:59;98074.42;;;6.77;98.09
34065;BME280;20339;49.754;20.158;2022-11-11T03:48:32;98079.38;;;6.76;98.25
34065;BME280;20339;49.754;20.158;2022-11-11T03:51:04;98080.91;;;6.77;98.14
34065;BME280;20339;49.754;20.158;2022-11-11T03:53:38;98080.50;;;6.77;98.12
34065;BME280;20339;49.754;20.158;2022-11-11T03:56:09;98084.52;;;6.80;97.82
34065;BME280;20339;49.754;20.158;2022-11-11T03:58:41;98089.95;;;6.85;97.90
34065;BME280;20339;49.754;20.158;2022-11-11T04:01:12;98092.89;;;6.93;97.80
34065;BME280;20339;49.754;20.158;2022-11-11T04:04:03;98091.20;;;6.97;97.27
34065;BME280;20339;49.754;20.158;2022-11-11T04:07:00;98091.14;;;7.00;97.07
34065;BME280;20339;49.754;20.158;2022-11-11T04:09:49;98092.65;;;7.01;96.92
34065;BME280;20339;49.754;20.158;2022-11-11T04:12:39;98090.57;;;7.04;96.65
34065;BME280;20339;49.754;20.158;2022-11-11T04:15:28;98095.08;;;7.04;96.38
34065;BME280;20339;49.754;20.158;2022-11-11T04:18:16;98094.42;;;7.05;96.19
34065;BME280;20339;49.754;20.158;2022-11-11T04:21:08;98093.96;;;7.06;96.04
34065;BME280;20339;49.754;20.158;2022-11-11T04:24:00;98091.09;;;7.04;96.09
34065;BME280;20339;49.754;20.158;2022-11-11T04:26:31;98096.87;;;7.01;95.91
34065;BME280;20339;49.754;20.158;2022-11-11T04:29:02;98091.75;;;6.99;95.90
34065;BME280;20339;49.754;20.158;2022-11-11T04:31:50;98091.52;;;6.98;95.75
34065;BME280;20339;49.754;20.158;2022-11-11T04:34:39;98088.36;;;6.97;95.68
34065;BME280;20339;49.754;20.158;2022-11-11T04:37:11;98081.98;;;6.96;95.65
34065;BME280;20339;49.754;20.158;2022-11-11T04:39:42;98079.09;;;6.96;95.64
34065;BME280;20339;49.754;20.158;2022-11-11T04:42:31;98079.89;;;6.94;95.60
34065;BME280;20339;49.754;20.158;2022-11-11T04:45:03;98083.81;;;6.91;95.62
34065;BME280;20339;49.754;20.158;2022-11-11T04:47:58;98088.23;;;6.86;95.50
34065;BME280;20339;49.754;20.158;2022-11-11T04:50:30;98088.52;;;6.81;95.52
34065;BME280;20339;49.754;20.158;2022-11-11T04:53:07;98087.16;;;6.80;95.50
34065;BME280;20339;49.754;20.158;2022-11-11T04:55:40;98087.67;;;6.77;95.44
34065;BME280;20339;49.754;20.158;2022-11-11T04:58:30;98087.68;;;6.76;95.45
34065;BME280;20339;49.754;20.158;2022-11-11T05:01:02;98086.11;;;6.73;95.47
34065;BME280;20339;49.754;20.158;2022-11-11T05:03:36;98082.61;;;6.71;95.43
34065;BME280;20339;49.754;20.158;2022-11-11T05:06:07;98079.43;;;6.69;95.45
34065;BME280;20339;49.754;20.158;2022-11-11T05:08:56;98078.86;;;6.67;95.41
34065;BME280;20339;49.754;20.158;2022-11-11T05:11:29;98081.00;;;6.66;95.40
34065;BME280;20339;49.754;20.158;2022-11-11T05:14:02;98078.28;;;6.67;95.46
34065;BME280;20339;49.754;20.158;2022-11-11T05:16:53;98086.10;;;6.68;95.40
34065;BME280;20339;49.754;20.158;2022-11-11T05:19:42;98098.72;;;6.66;95.22
34065;BME280;20339;49.754;20.158;2022-11-11T05:22:34;98102.23;;;6.68;95.16
34065;BME280;20339;49.754;20.158;2022-11-11T05:25:06;98107.16;;;6.69;95.21
34065;BME280;20339;49.754;20.158;2022-11-11T05:27:59;98105.40;;;6.68;95.02
34065;BME280;20339;49.754;20.158;2022-11-11T05:30:30;98109.70;;;6.67;95.05
34065;BME280;20339;49.754;20.158;2022-11-11T05:33:03;98116.64;;;6.68;94.95
34065;BME280;20339;49.754;20.158;2022-11-11T05:35:34;98121.42;;;6.66;94.95
34065;BME280;20339;49.754;20.158;2022-11-11T05:38:06;98124.05;;;6.68;95.05
34065;BME280;20339;49.754;20.158;2022-11-11T05:40:51;98120.96;;;6.72;94.99
34065;BME280;20339;49.754;20.158;2022-11-11T05:43:23;98107.68;;;6.75;94.93
34065;BME280;20339;49.754;20.158;2022-11-11T05:45:54;98115.89;;;6.78;94.73
34065;BME280;20339;49.754;20.158;2022-11-11T05:48:25;98121.15;;;6.73;94.51
34065;BME280;20339;49.754;20.158;2022-11-11T05:50:58;98121.45;;;6.71;94.60
34065;BME280;20339;49.754;20.158;2022-11-11T05:53:32;98127.42;;;6.71;94.59
34065;BME280;20339;49.754;20.158;2022-11-11T05:56:03;98126.85;;;6.71;94.70
34065;BME280;20339;49.754;20.158;2022-11-11T05:58:35;98134.12;;;6.76;94.64
34065;BME280;20339;49.754;20.158;2022-11-11T06:01:06;98142.39;;;6.77;94.44
34065;BME280;20339;49.754;20.158;2022-11-11T06:03:37;98147.05;;;6.76;94.45
34065;BME280;20339;49.754;20.158;2022-11-11T06:06:12;98149.96;;;6.78;94.62
34065;BME280;20339;49.754;20.158;2022-11-11T06:08:43;98157.20;;;6.79;94.50
34065;BME280;20339;49.754;20.158;2022-11-11T06:11:14;98162.34;;;6.80;94.62
34065;BME280;20339;49.754;20.158;2022-11-11T06:13:46;98167.50;;;6.83;94.68
34065;BME280;20339;49.754;20.158;2022-11-11T06:16:18;98174.17;;;6.88;94.65
34065;BME280;20339;49.754;20.158;2022-11-11T06:18:51;98176.23;;;6.92;94.62
34065;BME280;20339;49.754;20.158;2022-11-11T06:21:22;98172.60;;;6.94;94.34
34065;BME280;20339;49.754;20.158;2022-11-11T06:23:54;98168.87;;;6.95;94.18
34065;BME280;20339;49.754;20.158;2022-11-11T06:26:30;98168.41;;;6.90;94.12
34065;BME280;20339;49.754;20.158;2022-11-11T06:29:01;98177.31;;;6.80;93.98
34065;BME280;20339;49.754;20.158;2022-11-11T06:31:33;98176.84;;;6.78;94.16
34065;BME280;20339;49.754;20.158;2022-11-11T06:34:04;98175.21;;;6.82;94.39
34065;BME280;20339;49.754;20.158;2022-11-11T06:36:36;98162.90;;;6.89;94.44
34065;BME280;20339;49.754;20.158;2022-11-11T06:39:07;98159.46;;;6.94;94.42
34065;BME280;20339;49.754;20.158;2022-11-11T06:41:41;98162.23;;;7.02;94.42
34065;BME280;20339;49.754;20.158;2022-11-11T06:44:13;98163.65;;;7.10;94.31
34065;BME280;20339;49.754;20.158;2022-11-11T06:46:44;98164.77;;;7.17;94.28
34065;BME280;20339;49.754;20.158;2022-11-11T06:49:16;98169.95;;;7.23;93.97
34065;BME280;20339;49.754;20.158;2022-11-11T06:51:49;98170.35;;;7.30;93.90
34065;BME280;20339;49.754;20.158;2022-11-11T06:54:22;98166.58;;;7.39;93.87
34065;BME280;20339;49.754;20.158;2022-11-11T06:56:53;98161.33;;;7.48;93.63
34065;BME280;20339;49.754;20.158;2022-11-11T06:59:28;98150.02;;;7.49;93.02
34065;BME280;20339;49.754;20.158;2022-11-11T07:01:59;98145.83;;;7.46;92.84
34065;BME280;20339;49.754;20.158;2022-11-11T07:04:33;98147.84;;;7.43;92.73
34065;BME280;20339;49.754;20.158;2022-11-11T07:07:04;98147.23;;;7.37;92.59
34065;BME280;20339;49.754;20.158;2022-11-11T07:09:37;98152.88;;;7.33;92.59
34065;BME280;20339;49.754;20.158;2022-11-11T07:12:08;98152.63;;;7.28;92.67
34065;BME280;20339;49.754;20.158;2022-11-11T07:14:39;98155.52;;;7.24;92.68
34065;BME280;20339;49.754;20.158;2022-11-11T07:17:11;98164.99;;;7.20;92.65
34065;BME280;20339;49.754;20.158;2022-11-11T07:19:42;98165.40;;;7.17;92.69
34065;BME280;20339;49.754;20.158;2022-11-11T07:22:14;98158.91;;;7.16;93.02
34065;BME280;20339;49.754;20.158;2022-11-11T07:24:45;98155.70;;;7.19;92.99
34065;BME280;20339;49.754;20.158;2022-11-11T07:27:17;98149.25;;;7.23;92.78
34065;BME280;20339;49.754;20.158;2022-11-11T07:29:51;98151.86;;;7.25;92.81
34065;BME280;20339;49.754;20.158;2022-11-11T07:32:22;98152.69;;;7.30;92.79
34065;BME280;20339;49.754;20.158;2022-11-11T07:34:55;98153.67;;;7.35;92.76
34065;BME280;20339;49.754;20.158;2022-11-11T07:37:27;98159.91;;;7.39;92.62
34065;BME280;20339;49.754;20.158;2022-11-11T07:40:00;98161.02;;;7.41;92.54
34065;BME280;20339;49.754;20.158;2022-11-11T07:42:32;98163.77;;;7.41;92.38
34065;BME280;20339;49.754;20.158;2022-11-11T07:45:07;98163.92;;;7.42;92.54
34065;BME280;20339;49.754;20.158;2022-11-11T07:47:39;98161.45;;;7.50;92.48
34065;BME280;20339;49.754;20.158;2022-11-11T07:50:15;98161.16;;;7.57;92.29
34065;BME280;20339;49.754;20.158;2022-11-11T07:52:50;98158.19;;;7.67;92.41
34065;BME280;20339;49.754;20.158;2022-11-11T07:55:22;98154.27;;;7.76;91.89
34065;BME280;20339;49.754;20.158;2022-11-11T07:57:54;98157.53;;;7.93;91.93
34065;BME280;20339;49.754;20.158;2022-11-11T08:00:28;98157.48;;;7.97;91.33
34065;BME280;20339;49.754;20.158;2022-11-11T08:02:59;98152.91;;;7.96;90.84
34065;BME280;20339;49.754;20.158;2022-11-11T08:05:31;98157.52;;;8.06;90.69
34065;BME280;20339;49.754;20.158;2022-11-11T08:08:05;98158.73;;;8.27;90.39
34065;BME280;20339;49.754;20.158;2022-11-11T08:10:37;98148.66;;;8.33;89.78
34065;BME280;20339;49.754;20.158;2022-11-11T08:13:09;98151.05;;;8.35;88.90
34065;BME280;20339;49.754;20.158;2022-11-11T08:15:59;98143.58;;;8.56;89.65
34065;BME280;20339;49.754;20.158;2022-11-11T08:18:36;98136.55;;;9.25;89.53
34065;BME280;20339;49.754;20.158;2022-11-11T08:21:08;98123.52;;;9.59;88.28
34065;BME280;20339;49.754;20.158;2022-11-11T08:23:41;98120.88;;;9.71;87.11
34065;BME280;20339;49.754;20.158;2022-11-11T08:26:14;98112.52;;;9.63;86.20
34065;BME280;20339;49.754;20.158;2022-11-11T08:28:46;98114.49;;;9.53;86.02
34065;BME280;20339;49.754;20.158;2022-11-11T08:31:19;98117.52;;;9.45;85.82
34065;BME280;20339;49.754;20.158;2022-11-11T08:33:51;98122.24;;;9.39;85.88
34065;BME280;20339;49.754;20.158;2022-11-11T08:36:23;98112.84;;;9.32;85.42
34065;BME280;20339;49.754;20.158;2022-11-11T08:38:55;98111.59;;;9.16;84.74
34065;BME280;20339;49.754;20.158;2022-11-11T08:41:27;98113.12;;;9.10;84.96
34065;BME280;20339;49.754;20.158;2022-11-11T08:43:59;98117.50;;;9.14;85.00
34065;BME280;20339;49.754;20.158;2022-11-11T08:46:31;98122.11;;;9.22;85.03
34065;BME280;20339;49.754;20.158;2022-11-11T08:49:02;98124.23;;;9.22;84.72
34065;BME280;20339;49.754;20.158;2022-11-11T08:51:33;98129.73;;;9.43;84.59
34065;BME280;20339;49.754;20.158;2022-11-11T08:54:05;98130.05;;;9.63;84.70
34065;BME280;20339;49.754;20.158;2022-11-11T08:56:37;98129.67;;;9.87;84.44
34065;BME280;20339;49.754;20.158;2022-11-11T08:59:11;98137.11;;;9.94;83.65
34065;BME280;20339;49.754;20.158;2022-11-11T09:01:44;98140.17;;;9.90;83.33
34065;BME280;20339;49.754;20.158;2022-11-11T09:04:15;98146.35;;;9.89;82.72
34065;BME280;20339;49.754;20.158;2022-11-11T09:06:47;98151.33;;;10.00;82.98
34065;BME280;20339;49.754;20.158;2022-11-11T09:09:19;98139.70;;;10.14;83.10
34065;BME280;20339;49.754;20.158;2022-11-11T09:11:51;98141.73;;;10.17;82.49
34065;BME280;20339;49.754;20.158;2022-11-11T09:14:23;98141.61;;;10.08;82.17
34065;BME280;20339;49.754;20.158;2022-11-11T09:16:54;98139.71;;;10.02;81.91
34065;BME280;20339;49.754;20.158;2022-11-11T09:19:26;98140.68;;;10.17;82.47
34065;BME280;20339;49.754;20.158;2022-11-11T09:21:58;98145.19;;;10.50;82.69
34065;BME280;20339;49.754;20.158;2022-11-11T09:24:32;98142.73;;;10.88;83.13
34065;BME280;20339;49.754;20.158;2022-11-11T09:27:04;98141.89;;;11.21;81.74
34065;BME280;20339;49.754;20.158;2022-11-11T09:29:36;98138.42;;;11.36;80.47
34065;BME280;20339;49.754;20.158;2022-11-11T09:32:08;98136.86;;;11.25;78.88
34065;BME280;20339;49.754;20.158;2022-11-11T09:34:39;98140.23;;;11.12;78.95
34065;BME280;20339;49.754;20.158;2022-11-11T09:37:11;98134.15;;;11.14;78.14
34065;BME280;20339;49.754;20.158;2022-11-11T09:39:42;98118.53;;;11.25;78.55
34065;BME280;20339;49.754;20.158;2022-11-11T09:42:22;98106.27;;;11.21;78.01
34065;BME280;20339;49.754;20.158;2022-11-11T09:45:11;98099.76;;;11.19;78.45
34065;BME280;20339;49.754;20.158;2022-11-11T09:47:53;98098.05;;;11.14;77.15
34065;BME280;20339;49.754;20.158;2022-11-11T09:50:27;98108.84;;;11.03;77.92
34065;BME280;20339;49.754;20.158;2022-11-11T09:53:06;98120.95;;;11.00;77.65
34065;BME280;20339;49.754;20.158;2022-11-11T09:55:43;98121.25;;;11.03;77.06
34065;BME280;20339;49.754;20.158;2022-11-11T09:58:19;98113.48;;;11.06;77.32
34065;BME280;20339;49.754;20.158;2022-11-11T10:00:59;98122.79;;;11.11;76.18
34065;BME280;20339;49.754;20.158;2022-11-11T10:03:35;98122.33;;;11.16;76.77
34065;BME280;20339;49.754;20.158;2022-11-11T10:06:12;98105.73;;;11.27;76.05
34065;BME280;20339;49.754;20.158;2022-11-11T10:08:51;98110.85;;;11.35;76.41
34065;BME280;20339;49.754;20.158;2022-11-11T10:11:42;98110.19;;;11.44;75.89
34065;BME280;20339;49.754;20.158;2022-11-11T10:14:18;98106.49;;;11.51;75.15
34065;BME280;20339;49.754;20.158;2022-11-11T10:16:56;98102.67;;;11.61;74.92
34065;BME280;20339;49.754;20.158;2022-11-11T10:19:32;98103.75;;;11.62;74.20
34065;BME280;20339;49.754;20.158;2022-11-11T10:22:18;98112.17;;;11.60;73.80
34065;BME280;20339;49.754;20.158;2022-11-11T10:24:59;98114.65;;;11.63;73.64
34065;BME280;20339;49.754;20.158;2022-11-11T10:27:33;98116.25;;;11.80;74.33
34065;BME280;20339;49.754;20.158;2022-11-11T10:30:17;98116.91;;;11.96;73.35
34065;BME280;20339;49.754;20.158;2022-11-11T10:32:55;98113.50;;;11.89;72.57
34065;BME280;20339;49.754;20.158;2022-11-11T10:35:32;98117.03;;;11.86;72.84
34065;BME280;20339;49.754;20.158;2022-11-11T10:38:29;98123.38;;;11.84;72.50
34065;BME280;20339;49.754;20.158;2022-11-11T10:41:09;98118.43;;;11.88;72.14
34065;BME280;20339;49.754;20.158;2022-11-11T10:43:45;98121.29;;;11.94;72.67
34065;BME280;20339;49.754;20.158;2022-11-11T10:46:20;98116.98;;;12.08;73.01
34065;BME280;20339;49.754;20.158;2022-11-11T10:48:58;98103.43;;;12.25;72.78
34065;BME280;20339;49.754;20.158;2022-11-11T10:51:37;98107.63;;;12.48;72.81
34065;BME280;20339;49.754;20.158;2022-11-11T10:54:16;98110.63;;;12.79;71.46
34065;BME280;20339;49.754;20.158;2022-11-11T10:56:53;98106.77;;;12.87;68.67
34065;BME280;20339;49.754;20.158;2022-11-11T10:59:33;98103.08;;;12.79;67.35
34065;BME280;20339;49.754;20.158;2022-11-11T11:02:12;98099.98;;;12.78;67.50
34065;BME280;20339;49.754;20.158;2022-11-11T11:04:51;98100.54;;;12.88;68.04
34065;BME280;20339;49.754;20.158;2022-11-11T11:07:28;98101.71;;;12.81;66.12
34065;BME280;20339;49.754;20.158;2022-11-11T11:10:07;98102.85;;;12.69;65.72
34065;BME280;20339;49.754;20.158;2022-11-11T11:12:44;98099.48;;;12.60;65.18
34065;BME280;20339;49.754;20.158;2022-11-11T11:15:19;98092.25;;;12.69;64.92
34065;BME280;20339;49.754;20.158;2022-11-11T11:17:57;98095.19;;;12.84;64.53
34065;BME280;20339;49.754;20.158;2022-11-11T11:20:31;98094.94;;;13.02;64.30
34065;BME280;20339;49.754;20.158;2022-11-11T11:23:02;98092.55;;;13.13;63.00
34065;BME280;20339;49.754;20.158;2022-11-11T11:25:34;98094.85;;;13.22;63.52
34065;BME280;20339;49.754;20.158;2022-11-11T11:28:10;98085.67;;;13.37;63.93
34065;BME280;20339;49.754;20.158;2022-11-11T11:30:59;98072.48;;;13.42;63.52
34065;BME280;20339;49.754;20.158;2022-11-11T11:33:50;98068.54;;;13.45;62.85
34065;BME280;20339;49.754;20.158;2022-11-11T11:36:23;98066.15;;;13.48;62.38
34065;BME280;20339;49.754;20.158;2022-11-11T11:38:54;98065.66;;;13.57;63.05
34065;BME280;20339;49.754;20.158;2022-11-11T11:41:37;98065.19;;;13.62;61.56
34065;BME280;20339;49.754;20.158;2022-11-11T11:44:28;98062.59;;;13.61;61.96
34065;BME280;20339;49.754;20.158;2022-11-11T11:47:11;98067.73;;;13.79;62.57
34065;BME280;20339;49.754;20.158;2022-11-11T11:53:03;98072.21;;;13.96;61.31
34065;BME280;20339;49.754;20.158;2022-11-11T11:55:43;98073.17;;;13.93;61.10
34065;BME280;20339;49.754;20.158;2022-11-11T11:58:33;98065.23;;;13.95;61.49
34065;BME280;20339;49.754;20.158;2022-11-11T12:01:12;98058.43;;;13.88;61.31
34065;BME280;20339;49.754;20.158;2022-11-11T12:04:07;98049.86;;;13.93;61.17
34065;BME280;20339;49.754;20.158;2022-11-11T12:06:51;98038.15;;;14.14;61.62
34065;BME280;20339;49.754;20.158;2022-11-11T12:09:36;98037.41;;;14.33;61.55
34065;BME280;20339;49.754;20.158;2022-11-11T12:12:19;98045.85;;;14.36;60.85
34065;BME280;20339;49.754;20.158;2022-11-11T12:15:03;98054.11;;;14.33;61.14
34065;BME280;20339;49.754;20.158;2022-11-11T12:17:51;98062.70;;;14.33;61.31
34065;BME280;20339;49.754;20.158;2022-11-11T12:20:27;98065.32;;;14.35;61.58
34065;BME280;20339;49.754;20.158;2022-11-11T12:23:14;98068.86;;;14.37;61.32
34065;BME280;20339;49.754;20.158;2022-11-11T12:26:00;98065.53;;;14.33;61.51
34065;BME280;20339;49.754;20.158;2022-11-11T12:28:50;98068.48;;;14.38;62.28
34065;BME280;20339;49.754;20.158;2022-11-11T12:31:29;98070.51;;;14.36;60.77
34065;BME280;20339;49.754;20.158;2022-11-11T12:34:19;98066.90;;;14.12;59.71
34065;BME280;20339;49.754;20.158;2022-11-11T12:36:58;98069.97;;;13.94;59.88
34065;BME280;20339;49.754;20.158;2022-11-11T12:39:48;98063.30;;;13.85;59.93
34065;BME280;20339;49.754;20.158;2022-11-11T12:42:36;98054.43;;;13.81;60.38
34065;BME280;20339;49.754;20.158;2022-11-11T12:45:15;98050.99;;;13.77;60.14
34065;BME280;20339;49.754;20.158;2022-11-11T12:47:57;98051.03;;;13.67;60.10
34065;BME280;20339;49.754;20.158;2022-11-11T12:50:37;98045.36;;;13.59;60.47
34065;BME280;20339;49.754;20.158;2022-11-11T12:53:20;98037.31;;;13.56;61.15
34065;BME280;20339;49.754;20.158;2022-11-11T12:56:06;98041.30;;;13.58;61.27
34065;BME280;20339;49.754;20.158;2022-11-11T12:58:47;98046.69;;;13.56;61.12
34065;BME280;20339;49.754;20.158;2022-11-11T13:01:27;98050.30;;;13.54;61.15
34065;BME280;20339;49.754;20.158;2022-11-11T13:04:18;98047.38;;;13.53;61.41
34065;BME280;20339;49.754;20.158;2022-11-11T13:07:00;98042.29;;;13.49;61.68
34065;BME280;20339;49.754;20.158;2022-11-11T13:09:48;98041.69;;;13.42;61.23
34065;BME280;20339;49.754;20.158;2022-11-11T13:12:28;98045.80;;;13.32;61.56
34065;BME280;20339;49.754;20.158;2022-11-11T13:15:10;98045.15;;;13.27;61.82
34065;BME280;20339;49.754;20.158;2022-11-11T13:17:42;98039.12;;;13.20;61.83
34065;BME280;20339;49.754;20.158;2022-11-11T13:20:23;98035.22;;;13.09;61.74
34065;BME280;20339;49.754;20.158;2022-11-11T13:22:59;98035.71;;;13.01;62.36
34065;BME280;20339;49.754;20.158;2022-11-11T13:25:33;98031.22;;;12.96;62.63
34065;BME280;20339;49.754;20.158;2022-11-11T13:28:07;98020.06;;;12.91;62.48
34065;BME280;20339;49.754;20.158;2022-11-11T13:30:52;98014.77;;;12.86;63.18
34065;BME280;20339;49.754;20.158;2022-11-11T13:33:37;98017.09;;;12.81;63.35
34065;BME280;20339;49.754;20.158;2022-11-11T13:36:11;98020.30;;;12.76;63.80
34065;BME280;20339;49.754;20.158;2022-11-11T13:38:48;98025.98;;;12.72;63.79
34065;BME280;20339;49.754;20.158;2022-11-11T13:41:26;98032.40;;;12.70;64.13
34065;BME280;20339;49.754;20.158;2022-11-11T13:44:04;98033.64;;;12.66;64.26
34065;BME280;20339;49.754;20.158;2022-11-11T13:46:39;98031.91;;;12.62;64.62